createdAt,value
2019-03-16T00:01:57.206Z,2.90
2019-03-16T00:04:17.683Z,2.80
2019-03-16T00:06:46.554Z,3.60
2019-03-16T00:09:15.482Z,2.47
2019-03-16T00:11:44.340Z,3.30
2019-03-16T00:14:13.154Z,2.70
2019-03-16T00:16:42.031Z,3.20
2019-03-16T00:19:10.906Z,3.37
2019-03-16T00:21:39.781Z,3.00
2019-03-16T00:24:08.630Z,2.50
2019-03-16T00:26:37.438Z,3.07
2019-03-16T00:29:06.677Z,4.07
2019-03-16T00:31:35.447Z,3.93
2019-03-16T00:34:04.258Z,2.57
2019-03-16T00:36:33.054Z,2.27
2019-03-16T00:39:01.846Z,2.97
2019-03-16T00:41:30.642Z,2.87
2019-03-16T00:43:59.418Z,2.73
2019-03-16T00:46:28.213Z,2.30
2019-03-16T00:48:57.075Z,3.00
2019-03-16T00:51:25.875Z,2.87
2019-03-16T00:53:54.716Z,2.63
2019-03-16T00:56:23.502Z,2.50
2019-03-16T00:58:52.346Z,2.57
2019-03-16T01:01:21.288Z,2.73
2019-03-16T01:03:49.966Z,2.73
2019-03-16T01:06:18.807Z,2.50
2019-03-16T01:08:47.612Z,3.00
2019-03-16T01:11:16.712Z,2.87
2019-03-16T01:13:45.622Z,3.87
2019-03-16T01:16:14.394Z,2.60
2019-03-16T01:18:45.369Z,2.60
2019-03-16T01:21:14.160Z,2.13
2019-03-16T01:23:42.987Z,3.00
2019-03-16T01:26:11.797Z,2.40
2019-03-16T01:28:40.595Z,2.43
2019-03-16T01:31:09.389Z,3.00
2019-03-16T01:33:38.163Z,3.33
2019-03-16T01:36:06.971Z,2.67
2019-03-16T01:38:35.752Z,2.80
2019-03-16T01:41:04.624Z,2.73
2019-03-16T01:43:33.436Z,6.53
2019-03-16T01:46:02.325Z,4.00
2019-03-16T01:48:31.110Z,3.60
2019-03-16T01:50:59.908Z,3.40
2019-03-16T01:53:28.684Z,3.27
2019-03-16T01:55:57.475Z,3.20
2019-03-16T01:58:26.251Z,2.80
2019-03-16T02:00:55.151Z,3.33
2019-03-16T02:03:23.973Z,3.17
2019-03-16T02:05:52.828Z,2.80
2019-03-16T02:08:21.617Z,3.47
2019-03-16T02:10:50.421Z,2.87
2019-03-16T02:13:19.226Z,3.50
2019-03-16T02:15:48.004Z,4.17
2019-03-16T02:18:16.848Z,3.50
2019-03-16T02:20:45.705Z,3.07
2019-03-16T02:23:14.487Z,3.30
2019-03-16T02:25:43.327Z,3.13
2019-03-16T02:28:12.155Z,3.27
2019-03-16T02:30:41.012Z,3.00
2019-03-16T02:33:13.456Z,2.73
2019-03-16T02:35:38.643Z,3.67
2019-03-16T02:38:07.577Z,4.10
2019-03-16T02:40:36.363Z,3.37
2019-03-16T02:43:05.256Z,3.63
2019-03-16T02:45:34.152Z,3.60
2019-03-16T02:48:02.957Z,4.07
2019-03-16T02:50:31.738Z,3.73
2019-03-16T02:53:00.520Z,3.57
2019-03-16T02:55:29.399Z,3.83
2019-03-16T02:57:58.193Z,3.10
2019-03-16T03:00:26.993Z,3.83
2019-03-16T03:02:55.778Z,4.00
2019-03-16T03:05:24.599Z,3.13
2019-03-16T03:07:53.463Z,3.30
2019-03-16T03:10:22.263Z,3.70
2019-03-16T03:12:51.119Z,3.20
2019-03-16T03:15:20.024Z,2.90
2019-03-16T03:17:48.826Z,3.90
2019-03-16T03:20:17.602Z,3.97
2019-03-16T03:22:46.406Z,3.80
2019-03-16T03:25:15.265Z,3.77
2019-03-16T03:27:44.105Z,3.73
2019-03-16T03:30:12.955Z,3.57
2019-03-16T03:32:41.767Z,3.90
2019-03-16T03:35:10.605Z,4.43
2019-03-16T03:37:39.356Z,4.47
2019-03-16T03:40:08.194Z,4.40
2019-03-16T03:42:36.998Z,4.17
2019-03-16T03:45:05.903Z,4.33
2019-03-16T03:47:34.709Z,4.13
2019-03-16T03:50:03.689Z,4.07
2019-03-16T03:52:32.474Z,4.43
2019-03-16T03:55:01.294Z,4.17
2019-03-16T03:57:30.111Z,4.43
2019-03-16T03:59:58.944Z,4.70
2019-03-16T04:02:27.748Z,5.60
2019-03-16T04:04:56.544Z,6.37
2019-03-16T04:07:25.405Z,6.53
2019-03-16T04:09:54.191Z,6.53
2019-03-16T04:12:22.988Z,7.57
2019-03-16T04:14:51.787Z,8.23
2019-03-16T04:17:20.560Z,8.53
2019-03-16T04:19:49.341Z,8.83
2019-03-16T04:22:18.123Z,10.17
2019-03-16T04:24:46.945Z,10.70
2019-03-16T04:27:16.869Z,10.87
2019-03-16T04:29:44.714Z,11.20
2019-03-16T04:32:13.510Z,10.10
2019-03-16T04:34:45.167Z,9.53
2019-03-16T04:37:11.090Z,9.87
2019-03-16T04:39:39.927Z,9.00
2019-03-16T04:42:08.760Z,9.17
2019-03-16T04:44:37.616Z,8.93
2019-03-16T04:47:06.403Z,8.17
2019-03-16T04:49:35.207Z,8.53
2019-03-16T04:52:03.978Z,9.37
2019-03-16T04:54:32.772Z,8.37
2019-03-16T04:57:01.568Z,9.27
2019-03-16T04:59:30.390Z,9.80
2019-03-16T05:01:59.233Z,8.93
2019-03-16T05:04:41.515Z,9.70
2019-03-16T05:06:56.923Z,9.20
2019-03-16T05:09:25.705Z,9.20
2019-03-16T05:11:54.493Z,9.77
2019-03-16T05:14:23.327Z,10.27
2019-03-16T05:16:52.106Z,11.97
2019-03-16T05:19:20.961Z,10.27
2019-03-16T05:21:49.827Z,10.23
2019-03-16T05:24:19.319Z,10.27
2019-03-16T05:26:48.138Z,10.23
2019-03-16T05:29:17.002Z,9.03
2019-03-16T05:31:45.788Z,9.87
2019-03-16T05:34:14.552Z,9.67
2019-03-16T05:36:43.392Z,8.33
2019-03-16T05:39:12.236Z,8.53
2019-03-16T05:41:41.015Z,7.70
2019-03-16T05:44:09.812Z,9.33
2019-03-16T05:46:38.601Z,6.90
2019-03-16T05:49:07.380Z,6.10
2019-03-16T05:51:36.260Z,5.70
2019-03-16T05:54:05.056Z,5.47
2019-03-16T05:56:33.843Z,5.40
2019-03-16T05:59:02.636Z,5.63
2019-03-16T06:01:31.527Z,5.87
2019-03-16T06:04:00.371Z,5.30
2019-03-16T06:06:29.256Z,5.07
2019-03-16T06:08:58.078Z,6.40
2019-03-16T06:11:26.874Z,5.10
2019-03-16T06:13:55.654Z,6.47
2019-03-16T06:16:24.451Z,8.00
2019-03-16T06:18:53.227Z,6.70
2019-03-16T06:21:22.084Z,6.07
2019-03-16T06:23:50.907Z,5.87
2019-03-16T06:26:19.700Z,6.37
2019-03-16T06:28:55.103Z,6.03
2019-03-16T06:31:23.953Z,6.37
2019-03-16T06:33:52.750Z,6.43
2019-03-16T06:36:21.532Z,7.60
2019-03-16T06:38:50.300Z,6.60
2019-03-16T06:41:19.071Z,6.80
2019-03-16T06:43:47.923Z,6.37
2019-03-16T06:46:16.706Z,6.40
2019-03-16T06:48:45.485Z,5.63
2019-03-16T06:51:14.317Z,5.87
2019-03-16T06:53:43.176Z,7.03
2019-03-16T06:56:11.985Z,6.00
2019-03-16T06:58:41.759Z,6.33
2019-03-16T07:01:10.593Z,6.93
2019-03-16T07:03:39.398Z,7.73
2019-03-16T07:06:08.186Z,7.23
2019-03-16T07:08:38.304Z,7.83
2019-03-16T07:11:07.117Z,8.80
2019-03-16T07:13:36.271Z,7.37
2019-03-16T07:16:05.099Z,7.03
2019-03-16T07:18:34.933Z,7.20
2019-03-16T07:21:03.738Z,6.87
2019-03-16T07:23:32.578Z,6.43
2019-03-16T07:26:13.740Z,6.67
2019-03-16T07:28:30.091Z,5.93
2019-03-16T07:30:58.903Z,5.93
2019-03-16T07:33:27.700Z,6.87
2019-03-16T07:35:56.499Z,6.30
2019-03-16T07:38:25.333Z,6.93
2019-03-16T07:40:54.114Z,10.00
2019-03-16T07:43:22.904Z,9.63
2019-03-16T07:45:51.735Z,9.17
2019-03-16T07:48:20.500Z,9.27
2019-03-16T07:50:49.303Z,9.00
2019-03-16T07:53:18.126Z,9.87
2019-03-16T07:55:46.923Z,9.20
2019-03-16T07:58:15.725Z,9.30
2019-03-16T08:00:44.573Z,8.13
2019-03-16T08:03:13.350Z,8.57
2019-03-16T08:05:43.244Z,7.57
2019-03-16T08:08:12.563Z,7.17
2019-03-16T08:10:41.351Z,7.30
2019-03-16T08:13:10.170Z,6.50
2019-03-16T08:15:38.965Z,5.77
2019-03-16T08:18:08.155Z,6.23
2019-03-16T08:20:36.708Z,5.30
2019-03-16T08:23:05.494Z,4.67
2019-03-16T08:25:34.306Z,4.40
2019-03-16T08:28:03.160Z,4.30
2019-03-16T08:30:31.939Z,3.60
2019-03-16T08:33:00.842Z,4.70
2019-03-16T08:35:29.647Z,3.53
2019-03-16T08:37:58.444Z,4.13
2019-03-16T08:40:27.313Z,4.73
2019-03-16T08:42:56.128Z,3.80
2019-03-16T08:45:24.962Z,3.80
2019-03-16T08:47:53.766Z,3.30
2019-03-16T08:50:22.570Z,4.50
2019-03-16T08:52:53.646Z,3.37
2019-03-16T08:55:20.150Z,5.63
2019-03-16T08:57:49.020Z,5.40
2019-03-16T09:00:17.793Z,5.03
2019-03-16T09:02:47.247Z,5.10
2019-03-16T09:05:16.107Z,5.67
2019-03-16T09:07:44.931Z,5.83
2019-03-16T09:10:13.762Z,6.57
2019-03-16T09:12:54.463Z,6.13
2019-03-16T09:15:11.379Z,6.50
2019-03-16T09:17:40.200Z,7.17
2019-03-16T09:20:10.888Z,7.20
2019-03-16T09:22:41.338Z,6.80
2019-03-16T09:25:10.104Z,6.13
2019-03-16T09:27:38.896Z,6.63
2019-03-16T09:30:11.018Z,6.53
2019-03-16T09:32:39.828Z,5.50
2019-03-16T09:35:08.627Z,7.47
2019-03-16T09:37:37.458Z,7.07
2019-03-16T09:40:06.334Z,5.37
2019-03-16T09:42:35.735Z,5.60
2019-03-16T09:45:04.619Z,4.73
2019-03-16T09:47:33.503Z,5.13
2019-03-16T09:50:02.319Z,4.50
2019-03-16T09:52:31.125Z,4.93
2019-03-16T09:54:59.986Z,4.53
2019-03-16T09:57:28.745Z,4.17
2019-03-16T09:59:57.603Z,4.67
2019-03-16T10:02:26.390Z,4.50
2019-03-16T10:04:55.244Z,4.27
2019-03-16T10:07:24.146Z,4.37
2019-03-16T10:09:53.818Z,4.97
2019-03-16T10:12:22.633Z,3.50
2019-03-16T10:14:51.464Z,4.20
2019-03-16T10:17:20.272Z,4.57
2019-03-16T10:19:49.071Z,5.07
2019-03-16T10:22:17.909Z,4.60
2019-03-16T10:24:46.777Z,4.70
2019-03-16T10:27:15.645Z,4.67
2019-03-16T10:29:44.460Z,4.90
2019-03-16T10:32:13.271Z,4.90
2019-03-16T10:34:42.097Z,4.33
2019-03-16T10:37:13.908Z,5.43
2019-03-16T10:39:42.760Z,5.10
2019-03-16T10:42:11.563Z,4.67
2019-03-16T10:44:40.359Z,6.73
2019-03-16T10:47:09.163Z,5.43
2019-03-16T10:49:37.959Z,4.07
2019-03-16T10:52:06.816Z,4.07
2019-03-16T10:54:35.619Z,3.90
2019-03-16T10:57:04.610Z,3.97
2019-03-16T10:59:33.358Z,3.27
2019-03-16T11:02:02.214Z,2.90
2019-03-16T11:04:31.174Z,3.20
2019-03-16T11:06:59.951Z,3.90
2019-03-16T11:09:28.807Z,2.80
2019-03-16T11:11:57.600Z,3.20
2019-03-16T11:14:26.580Z,2.83
2019-03-16T11:16:55.455Z,2.57
2019-03-16T11:19:24.244Z,2.57
2019-03-16T11:21:53.099Z,2.73
2019-03-16T11:24:21.966Z,2.70
2019-03-16T11:26:50.811Z,3.30
2019-03-16T11:29:19.618Z,4.50
2019-03-16T11:31:48.475Z,2.77
2019-03-16T11:34:17.276Z,2.47
2019-03-16T11:36:46.164Z,2.40
2019-03-16T11:39:14.987Z,2.13
2019-03-16T11:41:43.847Z,2.40
2019-03-16T11:44:12.633Z,2.40
2019-03-16T11:46:41.508Z,2.43
2019-03-16T11:49:10.426Z,1.97
2019-03-16T11:51:39.231Z,2.30
2019-03-16T11:54:08.036Z,2.67
2019-03-16T11:56:36.824Z,2.40
2019-03-16T11:59:05.626Z,2.40
2019-03-16T12:01:34.434Z,2.40
2019-03-16T12:04:03.227Z,2.80
2019-03-16T12:06:32.054Z,2.53
2019-03-16T12:09:00.875Z,2.57
2019-03-16T12:11:29.740Z,2.80
2019-03-16T12:14:00.371Z,2.30
2019-03-16T12:16:29.251Z,2.20
2019-03-16T12:18:58.071Z,2.33
2019-03-16T12:21:26.864Z,2.40
2019-03-16T12:23:56.149Z,2.57
2019-03-16T12:26:25.014Z,2.83
2019-03-16T12:28:54.798Z,2.37
2019-03-16T12:31:23.611Z,2.20
2019-03-16T12:33:52.554Z,2.43
2019-03-16T12:36:21.356Z,2.30
2019-03-16T12:38:50.170Z,1.77
2019-03-16T12:41:19.607Z,1.90
2019-03-16T12:43:49.277Z,1.80
2019-03-16T12:46:18.056Z,2.90
2019-03-16T12:48:46.898Z,7.53
2019-03-16T12:51:15.742Z,2.37
2019-03-16T12:53:44.524Z,2.10
2019-03-16T12:56:13.375Z,2.10
2019-03-16T12:58:42.176Z,1.50
2019-03-16T13:01:12.697Z,1.83
2019-03-16T13:03:39.817Z,2.37
2019-03-16T13:06:09.135Z,1.33
2019-03-16T13:08:38.017Z,1.60
2019-03-16T13:11:06.838Z,1.20
2019-03-16T13:13:36.691Z,2.13
2019-03-16T13:16:05.532Z,1.73
2019-03-16T13:18:34.427Z,1.80
2019-03-16T13:21:03.209Z,1.50
2019-03-16T13:23:32.118Z,1.93
2019-03-16T13:26:00.911Z,1.80
2019-03-16T13:28:29.756Z,1.50
2019-03-16T13:30:58.638Z,1.97
2019-03-16T13:33:27.507Z,1.93
2019-03-16T13:35:56.368Z,2.97
2019-03-16T13:38:25.222Z,1.63
2019-03-16T13:40:54.059Z,1.83
2019-03-16T13:43:22.933Z,1.93
2019-03-16T13:45:51.826Z,1.67
2019-03-16T13:48:21.372Z,1.60
2019-03-16T13:50:50.257Z,2.07
2019-03-16T13:53:19.108Z,1.23
2019-03-16T13:55:47.900Z,1.30
2019-03-16T13:58:16.705Z,1.40
2019-03-16T14:00:45.495Z,1.73
2019-03-16T14:03:14.316Z,1.30
2019-03-16T14:05:43.172Z,1.40
2019-03-16T14:08:12.121Z,1.50
2019-03-16T14:10:40.948Z,1.30
2019-03-16T14:13:09.823Z,1.73
2019-03-16T14:15:38.614Z,1.40
2019-03-16T14:18:07.438Z,1.77
2019-03-16T14:20:36.232Z,1.30
2019-03-16T14:23:05.072Z,1.37
2019-03-16T14:25:33.891Z,1.77
2019-03-16T14:28:02.700Z,4.90
2019-03-16T14:30:40.963Z,2.43
2019-03-16T14:33:00.398Z,1.10
2019-03-16T14:35:29.202Z,1.50
2019-03-16T14:37:58.026Z,1.30
2019-03-16T14:40:27.092Z,1.57
2019-03-16T14:42:55.732Z,1.43
2019-03-16T14:45:24.677Z,1.37
2019-03-16T14:47:53.479Z,1.40
2019-03-16T14:50:22.632Z,1.50
2019-03-16T14:52:51.437Z,1.40
2019-03-16T14:55:20.271Z,1.23
2019-03-16T14:57:49.106Z,1.43
2019-03-16T15:00:18.043Z,1.50
2019-03-16T15:02:47.033Z,1.50
2019-03-16T15:05:15.760Z,1.67
2019-03-16T15:07:44.529Z,2.07
2019-03-16T15:10:13.335Z,1.43
2019-03-16T15:12:42.330Z,1.80
2019-03-16T15:15:11.836Z,1.67
2019-03-16T15:17:40.731Z,1.60
2019-03-16T15:20:09.576Z,2.03
2019-03-16T15:22:38.400Z,2.57
2019-03-16T15:25:07.223Z,2.90
2019-03-16T15:27:36.031Z,2.53
2019-03-16T15:30:09.626Z,2.20
2019-03-16T15:32:42.075Z,1.67
2019-03-16T15:35:10.986Z,3.53
2019-03-16T15:37:39.755Z,2.43
2019-03-16T15:40:09.461Z,2.30
2019-03-16T15:42:38.256Z,2.40
2019-03-16T15:45:09.508Z,2.37
2019-03-16T15:47:38.822Z,2.13
2019-03-16T15:50:07.937Z,1.90
2019-03-16T15:52:37.691Z,2.13
2019-03-16T15:55:05.726Z,2.90
2019-03-16T15:57:34.657Z,2.40
2019-03-16T16:00:03.757Z,1.93
2019-03-16T16:02:32.543Z,1.67
2019-03-16T16:05:01.442Z,2.53
2019-03-16T16:07:30.253Z,2.00
2019-03-16T16:09:59.043Z,1.93
2019-03-16T16:12:27.858Z,1.97
2019-03-16T16:14:56.716Z,1.70
2019-03-16T16:17:25.535Z,2.00
2019-03-16T16:19:54.365Z,2.20
2019-03-16T16:22:23.190Z,2.27
2019-03-16T16:24:52.013Z,2.20
2019-03-16T16:27:23.854Z,2.93
2019-03-16T16:29:49.747Z,2.83
2019-03-16T16:32:18.560Z,1.90
2019-03-16T16:34:48.230Z,2.20
2019-03-16T16:37:17.136Z,2.00
2019-03-16T16:39:45.939Z,2.30
2019-03-16T16:42:14.899Z,2.67
2019-03-16T16:44:44.667Z,2.13
2019-03-16T16:47:13.499Z,2.70
2019-03-16T16:49:42.316Z,2.40
2019-03-16T16:52:11.102Z,2.53
2019-03-16T16:54:39.919Z,3.00
2019-03-16T16:57:08.735Z,2.47
2019-03-16T16:59:37.577Z,3.00
2019-03-16T17:02:06.376Z,4.63
2019-03-16T17:04:35.158Z,2.47
2019-03-16T17:07:04.035Z,8.80
2019-03-16T17:09:32.810Z,2.60
2019-03-16T17:12:01.616Z,2.77
2019-03-16T17:14:30.534Z,2.67
2019-03-16T17:16:59.525Z,2.80
2019-03-16T17:19:28.328Z,3.13
2019-03-16T17:21:57.154Z,2.97
2019-03-16T17:24:26.794Z,2.80
2019-03-16T17:26:55.599Z,3.23
2019-03-16T17:29:24.442Z,2.60
2019-03-16T17:31:53.272Z,2.87
2019-03-16T17:34:22.097Z,2.83
2019-03-16T17:36:50.907Z,3.50
2019-03-16T17:39:19.693Z,2.63
2019-03-16T17:41:48.507Z,3.53
2019-03-16T17:44:17.332Z,2.47
2019-03-16T17:46:46.167Z,2.63
2019-03-16T17:49:14.987Z,2.73
2019-03-16T17:51:44.678Z,2.83
2019-03-16T17:54:13.503Z,2.77
2019-03-16T17:56:42.455Z,2.80
2019-03-16T17:59:11.347Z,3.43
2019-03-16T18:01:40.150Z,3.87
2019-03-16T18:04:09.018Z,3.00
2019-03-16T18:06:38.127Z,3.00
2019-03-16T18:09:07.621Z,3.40
2019-03-16T18:11:36.404Z,2.67
2019-03-16T18:14:05.222Z,3.07
2019-03-16T18:16:34.011Z,2.60
2019-03-16T18:19:02.909Z,3.50
2019-03-16T18:21:31.703Z,2.50
2019-03-16T18:24:00.563Z,2.90
2019-03-16T18:26:29.367Z,3.40
2019-03-16T18:28:58.173Z,3.33
2019-03-16T18:31:27.000Z,2.67
2019-03-16T18:33:55.798Z,2.67
2019-03-16T18:36:24.625Z,3.00
2019-03-16T18:38:53.406Z,2.77
2019-03-16T18:41:22.779Z,2.50
2019-03-16T18:43:51.563Z,2.40
2019-03-16T18:46:20.398Z,3.27
2019-03-16T18:48:49.185Z,2.90
2019-03-16T18:51:17.979Z,2.63
2019-03-16T18:53:46.780Z,5.80
2019-03-16T18:56:15.596Z,3.63
2019-03-16T18:58:44.600Z,4.53
2019-03-16T19:01:13.698Z,3.80
2019-03-16T19:03:42.685Z,3.07
2019-03-16T19:06:11.499Z,3.03
2019-03-16T19:08:40.312Z,3.33
2019-03-16T19:11:09.099Z,2.63
2019-03-16T19:13:37.906Z,3.10
2019-03-16T19:16:06.715Z,3.30
2019-03-16T19:18:35.502Z,3.40
2019-03-16T19:21:04.293Z,2.90
2019-03-16T19:23:33.098Z,2.30
2019-03-16T19:26:01.987Z,3.07
2019-03-16T19:28:30.785Z,2.90
2019-03-16T19:30:59.711Z,3.20
2019-03-16T19:33:28.566Z,2.90
2019-03-16T19:35:57.391Z,3.50
2019-03-16T19:38:26.272Z,2.90
2019-03-16T19:40:55.678Z,3.10
2019-03-16T19:43:27.631Z,3.43
2019-03-16T19:46:00.404Z,13.17
2019-03-16T19:48:26.523Z,5.97
2019-03-16T19:50:55.922Z,3.50
2019-03-16T19:53:24.807Z,3.47
2019-03-16T19:55:53.618Z,2.67
2019-03-16T19:58:22.480Z,3.17
2019-03-16T20:00:51.307Z,4.30
2019-03-16T20:03:20.092Z,3.23
2019-03-16T20:05:48.866Z,3.30
2019-03-16T20:08:17.706Z,3.47
2019-03-16T20:10:46.498Z,3.83
2019-03-16T20:13:15.276Z,2.90
2019-03-16T20:15:44.183Z,3.00
2019-03-16T20:18:13.007Z,3.07
2019-03-16T20:20:41.799Z,3.20
2019-03-16T20:23:10.595Z,3.47
2019-03-16T20:25:39.372Z,3.20
2019-03-16T20:28:08.144Z,3.37
2019-03-16T20:30:37.050Z,3.53
2019-03-16T20:33:05.880Z,3.60
2019-03-16T20:35:34.633Z,3.23
2019-03-16T20:38:03.519Z,3.50
2019-03-16T20:40:32.315Z,3.83
2019-03-16T20:43:01.095Z,3.90
2019-03-16T20:45:30.007Z,3.57
2019-03-16T20:47:58.682Z,3.63
2019-03-16T20:50:27.468Z,3.40
2019-03-16T20:52:57.325Z,3.63
2019-03-16T20:55:26.115Z,3.70
2019-03-16T20:57:54.890Z,4.10
2019-03-16T21:00:23.737Z,4.23
2019-03-16T21:02:52.522Z,4.43
2019-03-16T21:05:21.328Z,5.03
2019-03-16T21:07:50.113Z,4.13
2019-03-16T21:10:18.896Z,4.50
2019-03-16T21:12:47.700Z,4.77
2019-03-16T21:15:16.530Z,4.47
2019-03-16T21:17:45.433Z,15.43
2019-03-16T21:20:14.268Z,4.97
2019-03-16T21:22:43.107Z,4.30
2019-03-16T21:25:11.988Z,4.80
2019-03-16T21:27:40.788Z,5.37
2019-03-16T21:30:11.964Z,5.53
2019-03-16T21:32:40.804Z,5.27
2019-03-16T21:35:09.773Z,15.87
2019-03-16T21:37:38.559Z,5.97
2019-03-16T21:40:07.477Z,5.53
2019-03-16T21:42:36.280Z,4.77
2019-03-16T21:45:05.199Z,5.20
2019-03-16T21:47:33.983Z,6.27
2019-03-16T21:50:02.774Z,5.70
2019-03-16T21:52:31.579Z,5.20
2019-03-16T21:55:00.378Z,5.33
2019-03-16T21:57:29.324Z,5.00
2019-03-16T21:59:58.672Z,5.90
2019-03-16T22:02:27.459Z,5.87
2019-03-16T22:04:56.250Z,5.20
2019-03-16T22:07:25.054Z,6.73
2019-03-16T22:09:53.852Z,6.90
2019-03-16T22:12:23.685Z,6.20
2019-03-16T22:14:52.522Z,12.60
2019-03-16T22:17:22.144Z,7.37
2019-03-16T22:19:50.971Z,6.60
2019-03-16T22:22:19.758Z,6.37
2019-03-16T22:24:50.399Z,6.70
2019-03-16T22:27:19.217Z,6.63
2019-03-16T22:29:49.855Z,6.87
2019-03-16T22:32:18.694Z,6.50
2019-03-16T22:34:47.451Z,6.83
2019-03-16T22:37:16.249Z,7.27
2019-03-16T22:39:45.168Z,7.17
2019-03-16T22:42:14.037Z,6.40
2019-03-16T22:44:43.840Z,7.00
2019-03-16T22:47:13.196Z,6.77
2019-03-16T22:49:41.979Z,6.70
2019-03-16T22:52:10.752Z,6.67
2019-03-16T22:54:39.663Z,7.03
2019-03-16T22:57:08.477Z,7.00
2019-03-16T22:59:37.322Z,7.67
2019-03-16T23:02:06.124Z,6.87
2019-03-16T23:04:34.921Z,7.30
2019-03-16T23:07:03.704Z,7.63
2019-03-16T23:09:32.487Z,7.83
2019-03-16T23:12:01.360Z,8.13
2019-03-16T23:14:30.146Z,8.10
2019-03-16T23:16:58.926Z,8.40
2019-03-16T23:19:27.716Z,8.63
2019-03-16T23:21:57.151Z,8.37
2019-03-16T23:24:26.022Z,9.17
2019-03-16T23:26:54.807Z,8.70
2019-03-16T23:29:23.595Z,9.07
2019-03-16T23:31:52.374Z,7.37
2019-03-16T23:34:21.195Z,8.57
2019-03-16T23:36:50.014Z,8.50
2019-03-16T23:39:18.872Z,8.13
2019-03-16T23:41:47.665Z,8.63
2019-03-16T23:44:16.434Z,7.90
2019-03-16T23:46:45.222Z,7.57
2019-03-16T23:49:14.018Z,7.53
2019-03-16T23:51:42.949Z,7.87
2019-03-16T23:54:11.778Z,7.33
2019-03-16T23:56:40.572Z,7.03
2019-03-16T23:59:09.462Z,6.50
